createdAt,value
2023-02-26T00:02:18.908Z,25.77
2023-02-26T00:05:22.201Z,25.85
2023-02-26T00:08:25.471Z,25.51
2023-02-26T00:11:30.833Z,25.47
2023-02-26T00:14:34.261Z,25.38
2023-02-26T00:17:39.865Z,25.58
2023-02-26T00:20:43.420Z,25.56
2023-02-26T00:23:47.012Z,25.45
2023-02-26T00:26:50.338Z,25.38
2023-02-26T00:29:56.441Z,25.21
2023-02-26T00:32:59.975Z,25.23
2023-02-26T00:36:25.206Z,25.24
2023-02-26T00:39:45.330Z,25.16
2023-02-26T00:42:48.973Z,25.07
2023-02-26T00:46:04.817Z,24.80
2023-02-26T00:49:35.721Z,24.84
2023-02-26T00:52:47.437Z,24.64
2023-02-26T00:55:50.768Z,24.38
2023-02-26T00:58:56.356Z,24.34
2023-02-26T01:01:59.559Z,24.35
2023-02-26T01:05:03.204Z,24.13
2023-02-26T01:08:40.955Z,23.94
2023-02-26T01:11:44.525Z,23.92
2023-02-26T01:14:48.153Z,23.77
2023-02-26T01:18:09.156Z,23.61
2023-02-26T01:21:18.646Z,23.50
2023-02-26T01:24:22.537Z,23.49
2023-02-26T01:27:27.520Z,23.54
2023-02-26T01:30:31.169Z,23.37
2023-02-26T01:33:45.553Z,22.94
2023-02-26T01:36:57.645Z,22.74
2023-02-26T01:40:30.088Z,22.84
2023-02-26T01:43:35.388Z,22.83
2023-02-26T01:46:58.085Z,22.54
2023-02-26T01:50:15.778Z,22.85
2023-02-26T01:53:24.608Z,22.68
2023-02-26T01:56:28.111Z,22.72
2023-02-26T01:59:33.195Z,22.67
2023-02-26T02:02:36.450Z,22.98
2023-02-26T02:05:53.045Z,22.77
2023-02-26T02:08:59.756Z,22.20
2023-02-26T02:12:31.343Z,22.37
2023-02-26T02:15:53.412Z,22.49
2023-02-26T02:19:21.269Z,22.34
2023-02-26T02:22:45.708Z,22.21
2023-02-26T02:26:10.628Z,22.29
2023-02-26T02:29:36.153Z,22.20
2023-02-26T02:32:39.875Z,22.03
2023-02-26T02:35:47.201Z,21.67
2023-02-26T02:38:57.311Z,21.87
2023-02-26T02:42:08.724Z,21.64
2023-02-26T02:45:19.157Z,21.56
2023-02-26T02:48:44.913Z,21.44
2023-02-26T02:52:06.183Z,21.46
2023-02-26T02:55:18.319Z,21.40
2023-02-26T02:58:26.478Z,21.19
2023-02-26T03:01:33.270Z,21.12
2023-02-26T03:04:36.075Z,21.05
2023-02-26T03:07:50.068Z,21.02
2023-02-26T03:10:53.633Z,20.77
2023-02-26T03:13:57.151Z,20.80
2023-02-26T03:17:12.923Z,20.83
2023-02-26T03:20:28.755Z,20.41
2023-02-26T03:23:47.768Z,20.56
2023-02-26T03:27:21.131Z,20.55
2023-02-26T03:30:41.312Z,20.50
2023-02-26T03:34:29.079Z,20.19
2023-02-26T03:37:46.680Z,20.41
2023-02-26T03:41:07.241Z,19.92
2023-02-26T03:44:33.124Z,20.12
2023-02-26T03:47:39.324Z,19.83
2023-02-26T03:50:47.564Z,19.87
2023-02-26T03:53:58.947Z,19.52
2023-02-26T03:57:02.212Z,19.29
2023-02-26T04:00:07.032Z,19.56
2023-02-26T04:03:17.584Z,19.34
2023-02-26T04:06:21.016Z,19.46
2023-02-26T04:09:27.450Z,19.30
2023-02-26T04:12:31.113Z,19.37
2023-02-26T04:15:34.726Z,19.12
2023-02-26T04:18:37.913Z,19.03
2023-02-26T04:21:41.391Z,18.62
2023-02-26T04:24:44.662Z,18.67
2023-02-26T04:27:47.940Z,18.68
2023-02-26T04:30:51.354Z,18.64
2023-02-26T04:33:55.658Z,18.70
2023-02-26T04:36:58.914Z,18.53
2023-02-26T04:40:02.438Z,18.58
2023-02-26T04:43:05.740Z,18.56
2023-02-26T04:46:08.972Z,18.46
2023-02-26T04:49:12.222Z,18.45
2023-02-26T04:52:15.551Z,18.63
2023-02-26T04:55:18.956Z,18.50
2023-02-26T04:58:22.128Z,18.35
2023-02-26T05:01:25.387Z,18.50
2023-02-26T05:04:28.809Z,18.32
2023-02-26T05:07:32.202Z,18.12
2023-02-26T05:10:35.466Z,18.10
2023-02-26T05:13:39.560Z,18.29
2023-02-26T05:16:43.628Z,18.16
2023-02-26T05:19:47.190Z,17.92
2023-02-26T05:22:50.395Z,18.09
2023-02-26T05:25:58.940Z,18.05
2023-02-26T05:29:02.311Z,17.97
2023-02-26T05:32:05.601Z,17.94
2023-02-26T05:35:09.425Z,17.96
2023-02-26T05:38:12.655Z,18.07
2023-02-26T05:41:15.994Z,18.02
2023-02-26T05:44:19.270Z,17.99
2023-02-26T05:47:22.655Z,17.99
2023-02-26T05:50:25.883Z,17.93
2023-02-26T05:53:29.430Z,18.11
2023-02-26T05:56:33.023Z,18.07
2023-02-26T05:59:36.291Z,17.99
2023-02-26T06:02:39.606Z,17.91
2023-02-26T06:05:43.044Z,18.12
2023-02-26T06:08:46.887Z,17.99
2023-02-26T06:11:50.081Z,17.77
2023-02-26T06:14:53.316Z,18.07
2023-02-26T06:17:56.524Z,17.90
2023-02-26T06:20:59.873Z,17.81
2023-02-26T06:24:03.125Z,17.94
2023-02-26T06:27:06.432Z,17.61
2023-02-26T06:30:10.479Z,17.87
2023-02-26T06:33:13.874Z,18.01
2023-02-26T06:36:17.090Z,17.72
2023-02-26T06:39:20.339Z,17.59
2023-02-26T06:42:23.653Z,17.78
2023-02-26T06:45:28.040Z,17.88
2023-02-26T06:48:31.262Z,17.96
2023-02-26T06:51:34.469Z,18.06
2023-02-26T06:54:40.034Z,17.72
2023-02-26T06:57:43.401Z,17.95
2023-02-26T07:00:46.892Z,18.21
2023-02-26T07:03:51.326Z,18.03
2023-02-26T07:06:57.121Z,18.24
2023-02-26T07:10:00.293Z,18.02
2023-02-26T07:13:03.695Z,17.94
2023-02-26T07:16:07.291Z,18.07
2023-02-26T07:19:10.498Z,18.07
2023-02-26T07:22:14.844Z,17.88
2023-02-26T07:25:18.074Z,18.00
2023-02-26T07:28:21.317Z,18.19
2023-02-26T07:31:24.592Z,18.01
2023-02-26T07:34:27.932Z,18.06
2023-02-26T07:37:31.140Z,18.21
2023-02-26T07:40:35.025Z,17.99
2023-02-26T07:43:38.328Z,18.19
2023-02-26T07:46:41.614Z,18.22
2023-02-26T07:49:45.127Z,18.11
2023-02-26T07:52:49.172Z,18.12
2023-02-26T07:55:52.399Z,18.29
2023-02-26T07:58:55.616Z,18.10
2023-02-26T08:01:58.803Z,18.03
2023-02-26T08:05:02.079Z,17.98
2023-02-26T08:08:05.422Z,18.11
2023-02-26T08:11:08.715Z,18.15
2023-02-26T08:14:12.682Z,18.11
2023-02-26T08:17:15.861Z,18.01
2023-02-26T08:20:19.193Z,18.24
2023-02-26T08:23:22.328Z,18.25
2023-02-26T08:26:25.890Z,18.36
2023-02-26T08:29:29.683Z,18.22
2023-02-26T08:32:32.997Z,18.20
2023-02-26T08:35:36.228Z,18.25
2023-02-26T08:38:39.573Z,18.22
2023-02-26T08:41:42.880Z,18.04
2023-02-26T08:44:46.139Z,18.27
2023-02-26T08:47:56.797Z,18.26
2023-02-26T08:51:00.679Z,18.12
2023-02-26T08:54:03.994Z,18.03
2023-02-26T08:57:07.259Z,18.12
2023-02-26T09:00:11.333Z,17.91
2023-02-26T09:03:14.865Z,18.05
2023-02-26T09:06:18.120Z,18.12
2023-02-26T09:09:21.375Z,18.12
2023-02-26T09:12:26.810Z,18.14
2023-02-26T09:15:30.147Z,18.01
2023-02-26T09:18:33.364Z,17.90
2023-02-26T09:21:36.975Z,17.74
2023-02-26T09:24:40.255Z,17.81
2023-02-26T09:27:43.647Z,17.78
2023-02-26T09:30:46.954Z,18.06
2023-02-26T09:33:50.203Z,17.93
2023-02-26T09:36:55.642Z,17.90
2023-02-26T09:39:58.937Z,17.85
2023-02-26T09:43:25.400Z,17.92
2023-02-26T09:46:47.008Z,17.91
2023-02-26T09:50:12.010Z,17.92
2023-02-26T09:53:25.509Z,17.84
2023-02-26T09:56:30.072Z,17.87
2023-02-26T09:59:37.103Z,17.85
2023-02-26T10:02:48.771Z,17.88
2023-02-26T10:06:19.637Z,17.80
2023-02-26T10:09:26.146Z,17.80
2023-02-26T10:12:31.698Z,17.84
2023-02-26T10:15:42.915Z,17.88
2023-02-26T10:18:52.985Z,17.77
2023-02-26T10:22:27.452Z,17.82
2023-02-26T10:25:48.387Z,17.92
2023-02-26T10:28:59.581Z,17.95
2023-02-26T10:32:25.888Z,17.95
2023-02-26T10:35:30.948Z,17.96
2023-02-26T10:38:34.487Z,18.05
2023-02-26T10:41:38.142Z,17.85
2023-02-26T10:45:12.310Z,17.90
2023-02-26T10:48:30.729Z,17.97
2023-02-26T10:51:38.058Z,17.78
2023-02-26T10:54:47.663Z,17.81
2023-02-26T10:58:26.401Z,17.57
2023-02-26T11:01:31.336Z,17.45
2023-02-26T11:04:34.643Z,17.64
2023-02-26T11:07:38.948Z,17.52
2023-02-26T11:11:03.146Z,17.45
2023-02-26T11:14:06.302Z,17.50
2023-02-26T11:17:30.240Z,17.60
2023-02-26T11:20:41.592Z,17.59
2023-02-26T11:23:45.275Z,17.70
2023-02-26T11:26:50.752Z,17.23
2023-02-26T11:29:59.850Z,17.22
2023-02-26T11:33:15.464Z,17.38
2023-02-26T11:36:24.369Z,17.45
2023-02-26T11:39:34.926Z,17.28
2023-02-26T11:42:48.766Z,17.49
2023-02-26T11:46:03.108Z,17.55
2023-02-26T11:49:06.380Z,17.47
2023-02-26T11:52:12.532Z,17.58
2023-02-26T11:55:22.155Z,17.36
2023-02-26T11:58:26.082Z,17.29
2023-02-26T12:01:30.739Z,17.46
2023-02-26T12:04:33.863Z,17.44
2023-02-26T12:07:37.559Z,17.27
2023-02-26T12:11:02.182Z,17.42
2023-02-26T12:14:28.483Z,17.49
2023-02-26T12:17:31.289Z,17.42
2023-02-26T12:20:42.361Z,17.56
2023-02-26T12:24:20.781Z,17.57
2023-02-26T12:27:46.298Z,17.44
2023-02-26T12:30:49.447Z,17.48
2023-02-26T12:34:34.235Z,17.48
2023-02-26T12:37:57.635Z,17.54
2023-02-26T12:41:15.829Z,17.73
2023-02-26T12:44:50.957Z,17.57
2023-02-26T12:48:19.030Z,17.70
2023-02-26T12:51:37.247Z,17.47
2023-02-26T12:55:03.804Z,17.44
2023-02-26T12:58:09.965Z,17.36
2023-02-26T13:01:33.682Z,17.25
2023-02-26T13:04:59.836Z,17.50
2023-02-26T13:08:20.937Z,17.58
2023-02-26T13:11:49.373Z,17.82
2023-02-26T13:15:12.467Z,17.84
2023-02-26T13:18:28.835Z,17.85
2023-02-26T13:22:03.142Z,17.97
2023-02-26T13:25:26.792Z,17.80
2023-02-26T13:28:40.893Z,17.74
2023-02-26T13:32:11.701Z,17.75
2023-02-26T13:35:36.357Z,17.77
2023-02-26T13:38:54.285Z,17.72
2023-02-26T13:42:29.805Z,17.91
2023-02-26T13:45:50.982Z,18.00
2023-02-26T13:49:03.074Z,18.03
2023-02-26T13:52:08.780Z,18.29
2023-02-26T13:55:47.941Z,18.52
2023-02-26T13:58:56.207Z,18.60
2023-02-26T14:02:24.311Z,18.47
2023-02-26T14:05:35.900Z,18.76
2023-02-26T14:08:39.152Z,18.81
2023-02-26T14:11:48.074Z,18.33
2023-02-26T14:15:00.583Z,18.69
2023-02-26T14:18:21.747Z,18.71
2023-02-26T14:21:28.865Z,18.95
2023-02-26T14:24:40.402Z,18.63
2023-02-26T14:27:45.684Z,18.73
2023-02-26T14:30:55.237Z,19.08
2023-02-26T14:34:22.775Z,19.15
2023-02-26T14:37:27.241Z,19.04
2023-02-26T14:40:44.526Z,19.01
2023-02-26T14:44:01.951Z,19.14
2023-02-26T14:47:05.671Z,19.12
2023-02-26T14:50:09.701Z,19.04
2023-02-26T14:53:25.798Z,19.16
2023-02-26T14:57:02.384Z,19.07
2023-02-26T15:00:11.823Z,19.33
2023-02-26T15:03:36.010Z,19.35
2023-02-26T15:06:41.944Z,19.28
2023-02-26T15:10:10.074Z,19.39
2023-02-26T15:13:31.229Z,19.53
2023-02-26T15:16:59.384Z,19.74
2023-02-26T15:20:16.369Z,20.00
2023-02-26T15:23:46.922Z,20.23
2023-02-26T15:26:57.067Z,20.14
2023-02-26T15:30:00.602Z,20.02
2023-02-26T15:33:14.693Z,20.38
2023-02-26T15:36:19.871Z,20.45
2023-02-26T15:39:24.554Z,20.38
2023-02-26T15:42:35.392Z,20.47
2023-02-26T15:45:46.237Z,20.55
2023-02-26T15:48:49.843Z,20.67
2023-02-26T15:51:55.706Z,20.63
2023-02-26T15:55:05.627Z,20.84
2023-02-26T15:58:11.395Z,20.71
2023-02-26T16:01:25.396Z,20.93
2023-02-26T16:04:28.713Z,21.14
2023-02-26T16:07:33.053Z,21.42
2023-02-26T16:10:40.053Z,21.58
2023-02-26T16:13:44.088Z,21.66
2023-02-26T16:16:49.954Z,21.67
2023-02-26T16:19:54.048Z,22.11
2023-02-26T16:23:04.407Z,22.47
2023-02-26T16:26:08.801Z,22.32
2023-02-26T16:29:18.565Z,22.66
2023-02-26T16:32:24.024Z,22.79
2023-02-26T16:35:35.808Z,22.30
2023-02-26T16:39:14.022Z,22.26
2023-02-26T16:42:22.267Z,22.74
2023-02-26T16:45:37.308Z,22.81
2023-02-26T16:49:08.891Z,22.93
2023-02-26T16:52:17.509Z,22.72
2023-02-26T16:55:20.797Z,22.83
2023-02-26T16:58:24.774Z,23.08
2023-02-26T17:01:28.283Z,23.68
2023-02-26T17:04:35.438Z,23.56
2023-02-26T17:07:48.843Z,23.33
2023-02-26T17:10:56.283Z,23.62
2023-02-26T17:14:14.383Z,23.54
2023-02-26T17:17:17.529Z,23.59
2023-02-26T17:20:20.761Z,23.67
2023-02-26T17:23:25.526Z,23.54
2023-02-26T17:26:28.765Z,23.57
2023-02-26T17:29:37.986Z,23.56
2023-02-26T17:32:42.352Z,23.64
2023-02-26T17:35:45.569Z,23.79
2023-02-26T17:38:48.937Z,24.23
2023-02-26T17:41:52.553Z,24.94
2023-02-26T17:44:55.820Z,24.53
2023-02-26T17:47:59.140Z,24.54
2023-02-26T17:51:02.445Z,25.11
2023-02-26T17:54:05.702Z,24.93
2023-02-26T17:57:15.718Z,24.74
2023-02-26T18:00:19.668Z,25.39
2023-02-26T18:03:23.214Z,25.34
2023-02-26T18:06:28.721Z,24.92
2023-02-26T18:09:31.973Z,24.98
2023-02-26T18:12:35.348Z,26.24
2023-02-26T18:15:39.117Z,25.35
2023-02-26T18:18:42.340Z,24.92
2023-02-26T18:21:45.625Z,25.08
2023-02-26T18:24:51.104Z,25.21
2023-02-26T18:27:56.518Z,25.32
2023-02-26T18:30:59.945Z,25.19
2023-02-26T18:34:03.371Z,24.88
2023-02-26T18:37:07.052Z,25.60
2023-02-26T18:40:18.336Z,26.09
2023-02-26T18:43:21.692Z,26.70
2023-02-26T18:46:25.370Z,26.39
2023-02-26T18:49:31.124Z,26.32
2023-02-26T18:52:34.608Z,26.60
2023-02-26T18:55:38.139Z,26.30
2023-02-26T18:58:41.641Z,26.47
2023-02-26T19:01:45.658Z,26.34
2023-02-26T19:04:49.291Z,25.81
2023-02-26T19:07:55.056Z,26.28
2023-02-26T19:10:58.991Z,26.66
2023-02-26T19:14:03.623Z,25.79
2023-02-26T19:17:08.727Z,26.39
2023-02-26T19:20:12.721Z,26.56
2023-02-26T19:23:15.907Z,26.45
2023-02-26T19:26:19.072Z,26.41
2023-02-26T19:29:22.245Z,26.58
2023-02-26T19:32:25.716Z,27.15
2023-02-26T19:35:29.110Z,26.89
2023-02-26T19:38:32.441Z,26.24
2023-02-26T19:41:35.729Z,26.02
2023-02-26T19:44:38.909Z,26.65
2023-02-26T19:47:42.204Z,26.34
2023-02-26T19:50:46.689Z,26.87
2023-02-26T19:53:49.870Z,26.88
2023-02-26T19:56:53.043Z,26.68
2023-02-26T19:59:56.604Z,26.93
2023-02-26T20:02:59.869Z,26.78
2023-02-26T20:06:03.585Z,26.47
2023-02-26T20:09:06.749Z,26.48
2023-02-26T20:12:10.092Z,26.94
2023-02-26T20:15:13.346Z,27.03
2023-02-26T20:18:16.842Z,27.11
2023-02-26T20:21:22.887Z,27.41
2023-02-26T20:24:26.338Z,27.46
2023-02-26T20:27:29.613Z,27.26
2023-02-26T20:30:32.770Z,27.57
2023-02-26T20:33:37.399Z,27.39
2023-02-26T20:36:40.630Z,27.20
2023-02-26T20:39:44.200Z,28.13
2023-02-26T20:42:47.634Z,28.37
2023-02-26T20:45:52.170Z,28.16
2023-02-26T20:48:55.562Z,28.00
2023-02-26T20:51:58.850Z,27.32
2023-02-26T20:55:02.141Z,27.06
2023-02-26T20:58:05.879Z,27.35
2023-02-26T21:01:09.107Z,27.14
2023-02-26T21:04:12.386Z,27.44
2023-02-26T21:07:15.797Z,27.55
2023-02-26T21:10:20.687Z,27.40
2023-02-26T21:13:23.966Z,27.17
2023-02-26T21:16:27.901Z,27.11
2023-02-26T21:19:32.170Z,27.17
2023-02-26T21:22:35.905Z,27.55
2023-02-26T21:25:43.497Z,27.21
2023-02-26T21:28:46.753Z,27.48
2023-02-26T21:31:50.334Z,27.35
2023-02-26T21:34:53.524Z,26.92
2023-02-26T21:37:56.773Z,27.10
2023-02-26T21:40:59.983Z,27.12
2023-02-26T21:44:03.131Z,27.73
2023-02-26T21:47:06.308Z,27.32
2023-02-26T21:50:10.889Z,27.20
2023-02-26T21:53:14.304Z,26.98
2023-02-26T21:56:17.615Z,26.78
2023-02-26T21:59:21.327Z,26.90
2023-02-26T22:02:25.315Z,27.00
2023-02-26T22:05:28.723Z,26.84
2023-02-26T22:08:32.549Z,26.26
2023-02-26T22:11:35.706Z,26.36
2023-02-26T22:14:38.918Z,26.74
2023-02-26T22:17:42.227Z,27.13
2023-02-26T22:20:45.419Z,27.35
2023-02-26T22:23:50.910Z,26.95
2023-02-26T22:26:54.215Z,26.79
2023-02-26T22:29:59.676Z,27.02
2023-02-26T22:33:02.953Z,27.00
2023-02-26T22:36:06.459Z,27.67
2023-02-26T22:39:09.726Z,27.68
2023-02-26T22:42:12.999Z,26.97
2023-02-26T22:45:16.181Z,28.52
2023-02-26T22:48:19.358Z,28.36
2023-02-26T22:51:24.676Z,27.60
2023-02-26T22:54:28.329Z,27.39
2023-02-26T22:57:31.514Z,27.71
2023-02-26T23:00:34.761Z,26.87
2023-02-26T23:03:38.275Z,25.98
2023-02-26T23:06:41.499Z,25.84
2023-02-26T23:09:46.517Z,25.24
2023-02-26T23:12:50.371Z,25.25
2023-02-26T23:15:53.783Z,25.06
2023-02-26T23:18:57.206Z,25.06
2023-02-26T23:22:00.472Z,24.99
2023-02-26T23:25:03.757Z,25.06
2023-02-26T23:28:09.259Z,24.63
2023-02-26T23:31:12.708Z,24.67
2023-02-26T23:34:16.329Z,24.76
2023-02-26T23:37:19.602Z,24.74
2023-02-26T23:40:23.032Z,24.68
2023-02-26T23:43:26.357Z,24.56
2023-02-26T23:46:29.609Z,24.34
2023-02-26T23:49:32.762Z,24.30
2023-02-26T23:52:36.264Z,24.25
2023-02-26T23:55:39.448Z,24.16
2023-02-26T23:58:42.849Z,24.31
